< Typhoon 201810 2018 Season Typhoon 201812 >
Typhoon 201811 (WUKONG)
General InformationTrack Information on Google MapsDetailed Wind InformationForecast History on Google MapsAccess Analytics MapList of All Images || NewsDisaster Info.WeblogTrackbackTyphoon FrontTwiphoonTyphoon Now!Typhoon ImaginationJMA Disaster Info. XMLResourceGoogle EarthGE AnimationAtom FeedGeoJSON
Detalied Best Track (Time Zone = UTC)
Year Month Day Hour Lat. Long. Pressure (hPa) Wind (kt) Class Image Chart
2018 7 22 00 22.0 159.6 1008 0 2 Image Chart
2018 7 22 06 22.8 159.7 1006 0 2 Image Chart
2018 7 22 12 23.7 159.5 1008 0 2 Image Chart
2018 7 22 18 24.5 159.2 1004 0 2 Image Chart
2018 7 23 00 25.3 159.8 1002 0 2 Image Chart
2018 7 23 06 26.3 159.6 1000 0 2 Image Chart
2018 7 23 12 27.3 159.4 998 35 3 Image Chart
2018 7 23 18 28.4 159.1 996 40 3 Image Chart
2018 7 24 00 29.3 159.0 992 45 3 Image Chart
2018 7 24 06 30.2 158.8 992 45 3 Image Chart
2018 7 24 12 30.8 158.6 992 45 3 Image Chart
2018 7 24 18 31.6 158.4 992 45 3 Image Chart
2018 7 25 00 32.7 158.2 990 50 4 Image Chart
2018 7 25 06 33.9 157.9 990 50 4 Image Chart
2018 7 25 12 35.4 157.3 990 50 4 Image Chart
2018 7 25 18 37.0 156.0 992 45 3 Image Chart
2018 7 26 00 38.4 154.7 996 40 3 Image Chart
2018 7 26 06 39.4 153.9 996 40 3 Image Chart
2018 7 26 12 41.4 152.7 1002 35 3 Image Chart
2018 7 26 18 42.7 152.3 1002 35 3 Image Chart
2018 7 27 00 44.3 152.2 1008 0 6 Image Chart
2018 7 27 06 45.8 153.4 1008 0 6 Image Chart
2018 7 27 12 47.9 155.7 1008 0 6 Image Chart
Japan Meteorological Agency Best Track Data | Correction Date : 2018-09-04
< Typhoon 201810 2018 Season Typhoon 201812 >

Help